sensor_id;sensor_type;location;lat;lon;timestamp;P1;durP1;ratioP1;P2;durP2;ratioP2
10170;SDS011;5127;50.922;6.988;2022-08-21T00:01:14;6.47;;;5.38;;
10170;SDS011;5127;50.922;6.988;2022-08-21T00:03:46;5.50;;;4.80;;
10170;SDS011;5127;50.922;6.988;2022-08-21T00:06:15;5.70;;;4.72;;
10170;SDS011;5127;50.922;6.988;2022-08-21T00:08:43;5.15;;;4.63;;
10170;SDS011;5127;50.922;6.988;2022-08-21T00:11:10;5.82;;;4.85;;
10170;SDS011;5127;50.922;6.988;2022-08-21T00:13:38;7.30;;;4.90;;
10170;SDS011;5127;50.922;6.988;2022-08-21T00:16:05;5.50;;;4.60;;
10170;SDS011;5127;50.922;6.988;2022-08-21T00:18:32;5.28;;;4.78;;
10170;SDS011;5127;50.922;6.988;2022-08-21T00:21:00;4.87;;;4.37;;
10170;SDS011;5127;50.922;6.988;2022-08-21T00:23:28;5.60;;;4.22;;
10170;SDS011;5127;50.922;6.988;2022-08-21T00:25:56;4.70;;;4.17;;
10170;SDS011;5127;50.922;6.988;2022-08-21T00:28:23;5.93;;;4.03;;
10170;SDS011;5127;50.922;6.988;2022-08-21T00:30:50;5.60;;;4.73;;
10170;SDS011;5127;50.922;6.988;2022-08-21T00:33:17;5.87;;;4.50;;
10170;SDS011;5127;50.922;6.988;2022-08-21T00:35:46;6.23;;;4.47;;
10170;SDS011;5127;50.922;6.988;2022-08-21T00:38:13;6.00;;;4.67;;
10170;SDS011;5127;50.922;6.988;2022-08-21T00:40:43;5.23;;;4.40;;
10170;SDS011;5127;50.922;6.988;2022-08-21T00:43:16;4.87;;;4.30;;
10170;SDS011;5127;50.922;6.988;2022-08-21T00:45:46;6.10;;;5.10;;
10170;SDS011;5127;50.922;6.988;2022-08-21T00:48:13;5.37;;;4.73;;
10170;SDS011;5127;50.922;6.988;2022-08-21T00:50:43;6.43;;;4.80;;
10170;SDS011;5127;50.922;6.988;2022-08-21T00:53:12;7.27;;;5.00;;
10170;SDS011;5127;50.922;6.988;2022-08-21T00:55:42;5.73;;;4.90;;
10170;SDS011;5127;50.922;6.988;2022-08-21T00:58:11;5.13;;;4.63;;
10170;SDS011;5127;50.922;6.988;2022-08-21T01:00:40;7.27;;;4.87;;
10170;SDS011;5127;50.922;6.988;2022-08-21T01:03:11;6.50;;;4.67;;
10170;SDS011;5127;50.922;6.988;2022-08-21T01:05:41;5.90;;;4.37;;
10170;SDS011;5127;50.922;6.988;2022-08-21T01:08:09;6.00;;;4.17;;
10170;SDS011;5127;50.922;6.988;2022-08-21T01:10:37;5.37;;;4.40;;
10170;SDS011;5127;50.922;6.988;2022-08-21T01:13:07;6.50;;;5.20;;
10170;SDS011;5127;50.922;6.988;2022-08-21T01:15:36;4.80;;;4.13;;
10170;SDS011;5127;50.922;6.988;2022-08-21T01:18:07;5.23;;;4.73;;
10170;SDS011;5127;50.922;6.988;2022-08-21T01:20:37;5.53;;;4.57;;
10170;SDS011;5127;50.922;6.988;2022-08-21T01:23:08;5.10;;;4.60;;
10170;SDS011;5127;50.922;6.988;2022-08-21T01:25:36;4.57;;;4.07;;
10170;SDS011;5127;50.922;6.988;2022-08-21T01:28:05;5.70;;;5.03;;
10170;SDS011;5127;50.922;6.988;2022-08-21T01:30:37;5.53;;;4.67;;
10170;SDS011;5127;50.922;6.988;2022-08-21T01:33:06;5.27;;;4.30;;
10170;SDS011;5127;50.922;6.988;2022-08-21T01:35:33;5.47;;;4.60;;
10170;SDS011;5127;50.922;6.988;2022-08-21T01:38:00;6.23;;;4.40;;
10170;SDS011;5127;50.922;6.988;2022-08-21T01:40:29;5.33;;;4.73;;
10170;SDS011;5127;50.922;6.988;2022-08-21T01:42:56;5.43;;;4.57;;
10170;SDS011;5127;50.922;6.988;2022-08-21T01:45:24;4.73;;;4.23;;
10170;SDS011;5127;50.922;6.988;2022-08-21T01:47:51;4.83;;;4.33;;
10170;SDS011;5127;50.922;6.988;2022-08-21T01:50:19;5.37;;;4.87;;
10170;SDS011;5127;50.922;6.988;2022-08-21T01:52:47;5.13;;;4.63;;
10170;SDS011;5127;50.922;6.988;2022-08-21T01:55:16;4.83;;;4.40;;
10170;SDS011;5127;50.922;6.988;2022-08-21T01:57:46;6.63;;;4.90;;
10170;SDS011;5127;50.922;6.988;2022-08-21T02:00:14;6.70;;;4.60;;
10170;SDS011;5127;50.922;6.988;2022-08-21T02:02:43;5.60;;;4.33;;
10170;SDS011;5127;50.922;6.988;2022-08-21T02:05:11;5.73;;;4.57;;
10170;SDS011;5127;50.922;6.988;2022-08-21T02:07:41;5.00;;;4.20;;
10170;SDS011;5127;50.922;6.988;2022-08-21T02:10:11;6.03;;;4.73;;
10170;SDS011;5127;50.922;6.988;2022-08-21T02:12:40;6.53;;;4.60;;
10170;SDS011;5127;50.922;6.988;2022-08-21T02:15:09;5.63;;;4.33;;
10170;SDS011;5127;50.922;6.988;2022-08-21T02:17:37;5.30;;;4.80;;
10170;SDS011;5127;50.922;6.988;2022-08-21T02:20:06;7.53;;;5.10;;
10170;SDS011;5127;50.922;6.988;2022-08-21T02:22:34;5.13;;;4.20;;
10170;SDS011;5127;50.922;6.988;2022-08-21T02:25:02;5.53;;;4.47;;
10170;SDS011;5127;50.922;6.988;2022-08-21T02:27:36;5.23;;;4.40;;
10170;SDS011;5127;50.922;6.988;2022-08-21T02:30:06;5.67;;;4.83;;
10170;SDS011;5127;50.922;6.988;2022-08-21T02:32:36;5.57;;;4.73;;
10170;SDS011;5127;50.922;6.988;2022-08-21T02:35:03;5.73;;;4.37;;
10170;SDS011;5127;50.922;6.988;2022-08-21T02:37:31;5.10;;;4.27;;
10170;SDS011;5127;50.922;6.988;2022-08-21T02:39:58;5.47;;;4.47;;
10170;SDS011;5127;50.922;6.988;2022-08-21T02:42:26;6.40;;;4.37;;
10170;SDS011;5127;50.922;6.988;2022-08-21T02:44:53;5.37;;;4.60;;
10170;SDS011;5127;50.922;6.988;2022-08-21T02:47:20;5.23;;;4.07;;
10170;SDS011;5127;50.922;6.988;2022-08-21T02:49:49;5.67;;;4.17;;
10170;SDS011;5127;50.922;6.988;2022-08-21T02:52:16;5.47;;;4.37;;
10170;SDS011;5127;50.922;6.988;2022-08-21T02:54:43;5.47;;;4.27;;
10170;SDS011;5127;50.922;6.988;2022-08-21T02:57:11;5.90;;;4.77;;
10170;SDS011;5127;50.922;6.988;2022-08-21T02:59:38;5.17;;;4.57;;
10170;SDS011;5127;50.922;6.988;2022-08-21T03:02:06;4.97;;;4.37;;
10170;SDS011;5127;50.922;6.988;2022-08-21T03:04:33;5.57;;;4.50;;
10170;SDS011;5127;50.922;6.988;2022-08-21T03:07:02;5.93;;;5.00;;
10170;SDS011;5127;50.922;6.988;2022-08-21T03:09:30;5.10;;;3.90;;
10170;SDS011;5127;50.922;6.988;2022-08-21T03:11:57;4.87;;;3.90;;
10170;SDS011;5127;50.922;6.988;2022-08-21T03:14:25;5.57;;;4.40;;
10170;SDS011;5127;50.922;6.988;2022-08-21T03:16:52;7.33;;;4.60;;
10170;SDS011;5127;50.922;6.988;2022-08-21T03:19:19;4.37;;;3.97;;
10170;SDS011;5127;50.922;6.988;2022-08-21T03:21:47;5.43;;;4.30;;
10170;SDS011;5127;50.922;6.988;2022-08-21T03:24:15;5.03;;;4.10;;
10170;SDS011;5127;50.922;6.988;2022-08-21T03:26:42;5.60;;;4.40;;
10170;SDS011;5127;50.922;6.988;2022-08-21T03:29:10;5.10;;;4.13;;
10170;SDS011;5127;50.922;6.988;2022-08-21T03:31:37;4.77;;;3.70;;
10170;SDS011;5127;50.922;6.988;2022-08-21T03:34:05;4.97;;;4.13;;
10170;SDS011;5127;50.922;6.988;2022-08-21T03:36:33;6.50;;;3.87;;
10170;SDS011;5127;50.922;6.988;2022-08-21T03:39:00;4.77;;;3.60;;
10170;SDS011;5127;50.922;6.988;2022-08-21T03:41:29;5.37;;;4.00;;
10170;SDS011;5127;50.922;6.988;2022-08-21T03:43:56;4.30;;;3.90;;
10170;SDS011;5127;50.922;6.988;2022-08-21T03:46:24;4.10;;;3.70;;
10170;SDS011;5127;50.922;6.988;2022-08-21T03:48:51;4.10;;;3.70;;
10170;SDS011;5127;50.922;6.988;2022-08-21T03:51:18;6.50;;;4.20;;
10170;SDS011;5127;50.922;6.988;2022-08-21T03:53:46;4.47;;;4.07;;
10170;SDS011;5127;50.922;6.988;2022-08-21T03:56:13;5.67;;;4.33;;
10170;SDS011;5127;50.922;6.988;2022-08-21T03:58:42;4.97;;;4.10;;
10170;SDS011;5127;50.922;6.988;2022-08-21T04:01:10;4.47;;;3.70;;
10170;SDS011;5127;50.922;6.988;2022-08-21T04:03:38;5.53;;;4.20;;
10170;SDS011;5127;50.922;6.988;2022-08-21T04:06:05;4.30;;;3.87;;
10170;SDS011;5127;50.922;6.988;2022-08-21T04:08:33;5.17;;;4.10;;
10170;SDS011;5127;50.922;6.988;2022-08-21T04:11:00;4.73;;;3.93;;
10170;SDS011;5127;50.922;6.988;2022-08-21T04:13:28;5.97;;;4.10;;
10170;SDS011;5127;50.922;6.988;2022-08-21T04:15:57;4.20;;;3.80;;
10170;SDS011;5127;50.922;6.988;2022-08-21T04:18:24;5.53;;;3.73;;
10170;SDS011;5127;50.922;6.988;2022-08-21T04:20:52;4.10;;;3.70;;
10170;SDS011;5127;50.922;6.988;2022-08-21T04:23:21;4.07;;;3.37;;
10170;SDS011;5127;50.922;6.988;2022-08-21T04:25:48;6.70;;;4.17;;
10170;SDS011;5127;50.922;6.988;2022-08-21T04:28:16;4.80;;;3.70;;
10170;SDS011;5127;50.922;6.988;2022-08-21T04:30:43;5.07;;;3.70;;
10170;SDS011;5127;50.922;6.988;2022-08-21T04:33:13;4.73;;;3.77;;
10170;SDS011;5127;50.922;6.988;2022-08-21T04:35:40;5.13;;;4.17;;
10170;SDS011;5127;50.922;6.988;2022-08-21T04:38:08;4.23;;;3.67;;
10170;SDS011;5127;50.922;6.988;2022-08-21T04:40:35;5.70;;;3.97;;
10170;SDS011;5127;50.922;6.988;2022-08-21T04:43:04;4.97;;;3.60;;
10170;SDS011;5127;50.922;6.988;2022-08-21T04:45:35;5.43;;;4.37;;
10170;SDS011;5127;50.922;6.988;2022-08-21T04:48:05;6.23;;;4.13;;
10170;SDS011;5127;50.922;6.988;2022-08-21T04:50:37;3.90;;;3.33;;
10170;SDS011;5127;50.922;6.988;2022-08-21T04:53:09;4.67;;;4.03;;
10170;SDS011;5127;50.922;6.988;2022-08-21T04:55:40;4.63;;;3.67;;
10170;SDS011;5127;50.922;6.988;2022-08-21T04:58:10;5.50;;;3.80;;
10170;SDS011;5127;50.922;6.988;2022-08-21T05:00:39;4.13;;;3.73;;
10170;SDS011;5127;50.922;6.988;2022-08-21T05:03:07;4.30;;;3.90;;
10170;SDS011;5127;50.922;6.988;2022-08-21T05:05:39;4.87;;;3.67;;
10170;SDS011;5127;50.922;6.988;2022-08-21T05:08:07;4.83;;;4.00;;
10170;SDS011;5127;50.922;6.988;2022-08-21T05:10:35;3.87;;;3.43;;
10170;SDS011;5127;50.922;6.988;2022-08-21T05:13:03;4.60;;;3.80;;
10170;SDS011;5127;50.922;6.988;2022-08-21T05:15:32;4.37;;;3.80;;
10170;SDS011;5127;50.922;6.988;2022-08-21T05:17:59;5.43;;;4.13;;
10170;SDS011;5127;50.922;6.988;2022-08-21T05:20:27;4.67;;;3.97;;
10170;SDS011;5127;50.922;6.988;2022-08-21T05:22:56;4.13;;;3.73;;
10170;SDS011;5127;50.922;6.988;2022-08-21T05:25:23;4.03;;;3.73;;
10170;SDS011;5127;50.922;6.988;2022-08-21T05:27:51;5.63;;;4.00;;
10170;SDS011;5127;50.922;6.988;2022-08-21T05:30:19;4.37;;;3.93;;
10170;SDS011;5127;50.922;6.988;2022-08-21T05:32:46;4.40;;;3.80;;
10170;SDS011;5127;50.922;6.988;2022-08-21T05:35:14;6.40;;;3.90;;
10170;SDS011;5127;50.922;6.988;2022-08-21T05:37:41;7.27;;;4.47;;
10170;SDS011;5127;50.922;6.988;2022-08-21T05:40:10;5.40;;;4.37;;
10170;SDS011;5127;50.922;6.988;2022-08-21T05:42:38;7.17;;;4.13;;
10170;SDS011;5127;50.922;6.988;2022-08-21T05:45:06;5.60;;;3.90;;
10170;SDS011;5127;50.922;6.988;2022-08-21T05:47:34;4.20;;;3.80;;
10170;SDS011;5127;50.922;6.988;2022-08-21T05:50:01;3.97;;;3.57;;
10170;SDS011;5127;50.922;6.988;2022-08-21T05:52:29;5.07;;;4.37;;
10170;SDS011;5127;50.922;6.988;2022-08-21T05:54:56;5.87;;;4.20;;
10170;SDS011;5127;50.922;6.988;2022-08-21T05:57:25;5.07;;;4.20;;
10170;SDS011;5127;50.922;6.988;2022-08-21T05:59:52;5.43;;;4.17;;
10170;SDS011;5127;50.922;6.988;2022-08-21T06:02:20;4.03;;;3.63;;
10170;SDS011;5127;50.922;6.988;2022-08-21T06:04:48;5.50;;;4.30;;
10170;SDS011;5127;50.922;6.988;2022-08-21T06:07:15;5.67;;;4.23;;
10170;SDS011;5127;50.922;6.988;2022-08-21T06:09:42;5.60;;;3.90;;
10170;SDS011;5127;50.922;6.988;2022-08-21T06:12:11;4.50;;;3.93;;
10170;SDS011;5127;50.922;6.988;2022-08-21T06:14:40;6.03;;;4.60;;
10170;SDS011;5127;50.922;6.988;2022-08-21T06:17:09;4.53;;;4.03;;
10170;SDS011;5127;50.922;6.988;2022-08-21T06:19:37;4.50;;;4.10;;
10170;SDS011;5127;50.922;6.988;2022-08-21T06:22:05;5.17;;;4.33;;
10170;SDS011;5127;50.922;6.988;2022-08-21T06:24:32;7.77;;;3.90;;
10170;SDS011;5127;50.922;6.988;2022-08-21T06:27:03;4.10;;;3.70;;
10170;SDS011;5127;50.922;6.988;2022-08-21T06:29:31;4.87;;;3.90;;
10170;SDS011;5127;50.922;6.988;2022-08-21T06:32:00;7.50;;;4.10;;
10170;SDS011;5127;50.922;6.988;2022-08-21T06:34:28;4.13;;;3.70;;
10170;SDS011;5127;50.922;6.988;2022-08-21T06:36:55;4.50;;;3.77;;
10170;SDS011;5127;50.922;6.988;2022-08-21T06:39:23;4.77;;;3.93;;
10170;SDS011;5127;50.922;6.988;2022-08-21T06:41:50;5.47;;;3.90;;
10170;SDS011;5127;50.922;6.988;2022-08-21T06:44:18;4.30;;;3.90;;
10170;SDS011;5127;50.922;6.988;2022-08-21T06:46:45;4.67;;;3.77;;
10170;SDS011;5127;50.922;6.988;2022-08-21T06:49:15;4.10;;;3.67;;
10170;SDS011;5127;50.922;6.988;2022-08-21T06:51:42;6.13;;;3.83;;
10170;SDS011;5127;50.922;6.988;2022-08-21T06:54:09;4.33;;;3.60;;
10170;SDS011;5127;50.922;6.988;2022-08-21T06:56:36;5.10;;;3.53;;
10170;SDS011;5127;50.922;6.988;2022-08-21T06:59:04;4.47;;;3.55;;
10170;SDS011;5127;50.922;6.988;2022-08-21T07:01:31;4.65;;;3.30;;
10170;SDS011;5127;50.922;6.988;2022-08-21T07:03:59;6.68;;;3.08;;
10170;SDS011;5127;50.922;6.988;2022-08-21T07:06:27;5.07;;;3.25;;
10170;SDS011;5127;50.922;6.988;2022-08-21T07:08:55;3.67;;;3.17;;
10170;SDS011;5127;50.922;6.988;2022-08-21T07:11:23;4.22;;;3.28;;
10170;SDS011;5127;50.922;6.988;2022-08-21T07:13:51;3.50;;;3.20;;
10170;SDS011;5127;50.922;6.988;2022-08-21T07:16:20;5.40;;;3.15;;
10170;SDS011;5127;50.922;6.988;2022-08-21T07:18:47;3.60;;;2.75;;
10170;SDS011;5127;50.922;6.988;2022-08-21T07:21:14;5.55;;;2.55;;
10170;SDS011;5127;50.922;6.988;2022-08-21T07:23:45;4.35;;;3.03;;
10170;SDS011;5127;50.922;6.988;2022-08-21T07:26:14;2.95;;;2.50;;
10170;SDS011;5127;50.922;6.988;2022-08-21T07:28:44;3.55;;;2.83;;
10170;SDS011;5127;50.922;6.988;2022-08-21T07:31:12;3.63;;;2.60;;
10170;SDS011;5127;50.922;6.988;2022-08-21T07:33:41;3.78;;;2.40;;
10170;SDS011;5127;50.922;6.988;2022-08-21T07:36:09;4.10;;;2.70;;
10170;SDS011;5127;50.922;6.988;2022-08-21T07:38:37;2.60;;;2.22;;
10170;SDS011;5127;50.922;6.988;2022-08-21T07:41:07;2.85;;;2.33;;
10170;SDS011;5127;50.922;6.988;2022-08-21T07:43:42;2.33;;;1.80;;
10170;SDS011;5127;50.922;6.988;2022-08-21T07:46:09;6.32;;;2.45;;
10170;SDS011;5127;50.922;6.988;2022-08-21T07:48:38;4.10;;;2.10;;
10170;SDS011;5127;50.922;6.988;2022-08-21T07:51:06;3.45;;;2.13;;
10170;SDS011;5127;50.922;6.988;2022-08-21T07:53:35;2.40;;;1.85;;
10170;SDS011;5127;50.922;6.988;2022-08-21T07:56:03;3.50;;;2.20;;
10170;SDS011;5127;50.922;6.988;2022-08-21T07:58:32;4.38;;;2.10;;
10170;SDS011;5127;50.922;6.988;2022-08-21T08:00:59;2.58;;;1.90;;
10170;SDS011;5127;50.922;6.988;2022-08-21T08:03:27;5.32;;;2.17;;
10170;SDS011;5127;50.922;6.988;2022-08-21T08:05:54;2.92;;;1.67;;
10170;SDS011;5127;50.922;6.988;2022-08-21T08:08:22;2.85;;;1.55;;
10170;SDS011;5127;50.922;6.988;2022-08-21T08:10:49;2.03;;;1.48;;
10170;SDS011;5127;50.922;6.988;2022-08-21T08:13:17;2.22;;;1.60;;
10170;SDS011;5127;50.922;6.988;2022-08-21T08:15:45;2.75;;;1.42;;
10170;SDS011;5127;50.922;6.988;2022-08-21T08:18:13;2.97;;;1.80;;
10170;SDS011;5127;50.922;6.988;2022-08-21T08:20:40;2.85;;;1.67;;
10170;SDS011;5127;50.922;6.988;2022-08-21T08:23:09;2.55;;;1.48;;
10170;SDS011;5127;50.922;6.988;2022-08-21T08:25:37;1.48;;;1.30;;
10170;SDS011;5127;50.922;6.988;2022-08-21T08:28:04;4.43;;;1.40;;
10170;SDS011;5127;50.922;6.988;2022-08-21T08:30:33;2.97;;;1.20;;
10170;SDS011;5127;50.922;6.988;2022-08-21T08:33:01;2.83;;;1.40;;
10170;SDS011;5127;50.922;6.988;2022-08-21T08:35:29;3.15;;;1.48;;
10170;SDS011;5127;50.922;6.988;2022-08-21T08:37:56;2.33;;;1.10;;
10170;SDS011;5127;50.922;6.988;2022-08-21T08:40:26;3.05;;;1.67;;
10170;SDS011;5127;50.922;6.988;2022-08-21T08:43:01;2.60;;;1.40;;
10170;SDS011;5127;50.922;6.988;2022-08-21T08:45:29;1.83;;;1.25;;
10170;SDS011;5127;50.922;6.988;2022-08-21T08:48:02;2.80;;;1.23;;
10170;SDS011;5127;50.922;6.988;2022-08-21T08:50:36;2.10;;;1.20;;
10170;SDS011;5127;50.922;6.988;2022-08-21T08:53:07;2.97;;;1.40;;
10170;SDS011;5127;50.922;6.988;2022-08-21T08:55:41;2.88;;;1.30;;
10170;SDS011;5127;50.922;6.988;2022-08-21T08:58:10;2.72;;;1.35;;
10170;SDS011;5127;50.922;6.988;2022-08-21T09:00:42;2.80;;;1.33;;
10170;SDS011;5127;50.922;6.988;2022-08-21T09:03:15;2.05;;;1.00;;
10170;SDS011;5127;50.922;6.988;2022-08-21T09:05:44;2.72;;;1.40;;
10170;SDS011;5127;50.922;6.988;2022-08-21T09:08:18;3.17;;;1.40;;
10170;SDS011;5127;50.922;6.988;2022-08-21T09:10:57;4.88;;;1.20;;
10170;SDS011;5127;50.922;6.988;2022-08-21T09:13:32;2.22;;;1.20;;
10170;SDS011;5127;50.922;6.988;2022-08-21T09:16:09;3.13;;;1.27;;
10170;SDS011;5127;50.922;6.988;2022-08-21T09:18:48;3.15;;;1.40;;
10170;SDS011;5127;50.922;6.988;2022-08-21T09:21:24;2.20;;;1.20;;
10170;SDS011;5127;50.922;6.988;2022-08-21T09:24:00;2.70;;;1.23;;
10170;SDS011;5127;50.922;6.988;2022-08-21T09:26:39;3.30;;;1.00;;
10170;SDS011;5127;50.922;6.988;2022-08-21T09:29:13;1.92;;;1.00;;
10170;SDS011;5127;50.922;6.988;2022-08-21T09:31:46;3.63;;;1.38;;
10170;SDS011;5127;50.922;6.988;2022-08-21T09:34:23;2.13;;;1.20;;
10170;SDS011;5127;50.922;6.988;2022-08-21T09:36:52;3.95;;;1.25;;
10170;SDS011;5127;50.922;6.988;2022-08-21T09:39:23;2.58;;;1.20;;
10170;SDS011;5127;50.922;6.988;2022-08-21T09:41:55;2.45;;;1.20;;
10170;SDS011;5127;50.922;6.988;2022-08-21T09:44:25;4.18;;;1.80;;
10170;SDS011;5127;50.922;6.988;2022-08-21T09:46:54;2.10;;;1.08;;
10170;SDS011;5127;50.922;6.988;2022-08-21T09:49:30;1.48;;;1.05;;
10170;SDS011;5127;50.922;6.988;2022-08-21T09:51:58;2.78;;;1.38;;
10170;SDS011;5127;50.922;6.988;2022-08-21T09:54:28;3.03;;;1.20;;
10170;SDS011;5127;50.922;6.988;2022-08-21T09:56:58;2.10;;;1.38;;
10170;SDS011;5127;50.922;6.988;2022-08-21T09:59:45;1.58;;;1.13;;
10170;SDS011;5127;50.922;6.988;2022-08-21T10:02:26;1.38;;;1.10;;
10170;SDS011;5127;50.922;6.988;2022-08-21T10:04:59;2.28;;;1.23;;
10170;SDS011;5127;50.922;6.988;2022-08-21T10:07:30;3.55;;;1.60;;
10170;SDS011;5127;50.922;6.988;2022-08-21T10:09:59;3.25;;;1.48;;
10170;SDS011;5127;50.922;6.988;2022-08-21T10:12:31;2.33;;;1.50;;
10170;SDS011;5127;50.922;6.988;2022-08-21T10:15:11;2.20;;;1.35;;
10170;SDS011;5127;50.922;6.988;2022-08-21T10:17:49;3.10;;;1.27;;
10170;SDS011;5127;50.922;6.988;2022-08-21T10:20:28;3.63;;;1.60;;
10170;SDS011;5127;50.922;6.988;2022-08-21T10:23:04;2.05;;;1.10;;
10170;SDS011;5127;50.922;6.988;2022-08-21T10:25:48;2.78;;;1.23;;
10170;SDS011;5127;50.922;6.988;2022-08-21T10:28:20;2.30;;;0.98;;
10170;SDS011;5127;50.922;6.988;2022-08-21T10:30:52;3.17;;;1.35;;
10170;SDS011;5127;50.922;6.988;2022-08-21T10:33:28;2.78;;;1.27;;
10170;SDS011;5127;50.922;6.988;2022-08-21T10:36:07;1.67;;;1.25;;
10170;SDS011;5127;50.922;6.988;2022-08-21T10:38:46;1.38;;;0.82;;
10170;SDS011;5127;50.922;6.988;2022-08-21T10:41:35;2.97;;;1.27;;
10170;SDS011;5127;50.922;6.988;2022-08-21T10:44:15;2.22;;;1.20;;
10170;SDS011;5127;50.922;6.988;2022-08-21T10:46:51;2.10;;;1.35;;
10170;SDS011;5127;50.922;6.988;2022-08-21T10:49:36;2.67;;;1.25;;
10170;SDS011;5127;50.922;6.988;2022-08-21T10:52:16;3.08;;;1.45;;
10170;SDS011;5127;50.922;6.988;2022-08-21T10:54:54;2.60;;;1.30;;
10170;SDS011;5127;50.922;6.988;2022-08-21T10:57:27;2.72;;;1.05;;
10170;SDS011;5127;50.922;6.988;2022-08-21T11:00:06;2.03;;;1.20;;
10170;SDS011;5127;50.922;6.988;2022-08-21T11:02:37;3.03;;;1.30;;
10170;SDS011;5127;50.922;6.988;2022-08-21T11:05:11;2.25;;;1.10;;
10170;SDS011;5127;50.922;6.988;2022-08-21T11:07:45;4.38;;;1.20;;
10170;SDS011;5127;50.922;6.988;2022-08-21T11:10:18;1.73;;;0.90;;
10170;SDS011;5127;50.922;6.988;2022-08-21T11:12:50;2.03;;;1.05;;
10170;SDS011;5127;50.922;6.988;2022-08-21T11:15:27;2.83;;;1.27;;
10170;SDS011;5127;50.922;6.988;2022-08-21T11:18:02;1.80;;;1.10;;
10170;SDS011;5127;50.922;6.988;2022-08-21T11:20:42;2.35;;;1.08;;
10170;SDS011;5127;50.922;6.988;2022-08-21T11:23:18;1.77;;;1.08;;
10170;SDS011;5127;50.922;6.988;2022-08-21T11:25:52;2.10;;;1.08;;
10170;SDS011;5127;50.922;6.988;2022-08-21T11:28:25;4.15;;;1.17;;
10170;SDS011;5127;50.922;6.988;2022-08-21T11:30:58;2.22;;;1.10;;
10170;SDS011;5127;50.922;6.988;2022-08-21T11:33:42;1.98;;;1.13;;
10170;SDS011;5127;50.922;6.988;2022-08-21T11:36:19;1.60;;;0.93;;
10170;SDS011;5127;50.922;6.988;2022-08-21T11:38:57;2.95;;;1.17;;
10170;SDS011;5127;50.922;6.988;2022-08-21T11:41:29;2.78;;;1.17;;
10170;SDS011;5127;50.922;6.988;2022-08-21T11:44:02;2.53;;;1.17;;
10170;SDS011;5127;50.922;6.988;2022-08-21T11:46:38;1.48;;;1.00;;
10170;SDS011;5127;50.922;6.988;2022-08-21T11:49:16;1.90;;;1.10;;
10170;SDS011;5127;50.922;6.988;2022-08-21T11:51:51;1.92;;;1.17;;
10170;SDS011;5127;50.922;6.988;2022-08-21T11:54:26;2.70;;;0.90;;
10170;SDS011;5127;50.922;6.988;2022-08-21T11:56:59;3.90;;;1.00;;
10170;SDS011;5127;50.922;6.988;2022-08-21T11:59:32;2.65;;;1.00;;
10170;SDS011;5127;50.922;6.988;2022-08-21T12:02:06;2.35;;;0.98;;
10170;SDS011;5127;50.922;6.988;2022-08-21T12:04:42;3.25;;;1.13;;
10170;SDS011;5127;50.922;6.988;2022-08-21T12:07:12;1.38;;;0.90;;
10170;SDS011;5127;50.922;6.988;2022-08-21T12:09:50;2.00;;;0.95;;
10170;SDS011;5127;50.922;6.988;2022-08-21T12:12:23;2.55;;;0.88;;
10170;SDS011;5127;50.922;6.988;2022-08-21T12:15:04;2.05;;;0.95;;
10170;SDS011;5127;50.922;6.988;2022-08-21T12:17:50;1.10;;;0.70;;
10170;SDS011;5127;50.922;6.988;2022-08-21T12:20:23;1.85;;;1.00;;
10170;SDS011;5127;50.922;6.988;2022-08-21T12:23:03;1.95;;;1.75;;
10170;SDS011;5127;50.922;6.988;2022-08-21T12:25:43;2.10;;;1.60;;
10170;SDS011;5127;50.922;6.988;2022-08-21T12:28:14;2.17;;;1.35;;
10170;SDS011;5127;50.922;6.988;2022-08-21T12:30:48;1.33;;;1.00;;
10170;SDS011;5127;50.922;6.988;2022-08-21T12:33:20;2.45;;;0.90;;
10170;SDS011;5127;50.922;6.988;2022-08-21T12:35:51;2.70;;;0.98;;
10170;SDS011;5127;50.922;6.988;2022-08-21T12:38:29;2.80;;;1.88;;
10170;SDS011;5127;50.922;6.988;2022-08-21T12:41:01;1.55;;;1.30;;
10170;SDS011;5127;50.922;6.988;2022-08-21T12:43:33;2.33;;;1.00;;
10170;SDS011;5127;50.922;6.988;2022-08-21T12:46:03;2.05;;;1.23;;
10170;SDS011;5127;50.922;6.988;2022-08-21T12:48:31;2.28;;;1.10;;
10170;SDS011;5127;50.922;6.988;2022-08-21T12:51:07;2.50;;;1.70;;
10170;SDS011;5127;50.922;6.988;2022-08-21T12:53:38;2.47;;;1.30;;
10170;SDS011;5127;50.922;6.988;2022-08-21T12:56:12;1.95;;;1.13;;
10170;SDS011;5127;50.922;6.988;2022-08-21T12:58:44;1.67;;;1.05;;
10170;SDS011;5127;50.922;6.988;2022-08-21T13:01:17;3.50;;;1.23;;
10170;SDS011;5127;50.922;6.988;2022-08-21T13:03:49;1.65;;;0.98;;
10170;SDS011;5127;50.922;6.988;2022-08-21T13:06:20;3.13;;;1.00;;
10170;SDS011;5127;50.922;6.988;2022-08-21T13:08:50;2.20;;;0.90;;
10170;SDS011;5127;50.922;6.988;2022-08-21T13:11:22;1.42;;;1.00;;
10170;SDS011;5127;50.922;6.988;2022-08-21T13:13:50;1.73;;;1.13;;
10170;SDS011;5127;50.922;6.988;2022-08-21T13:16:19;1.63;;;0.93;;
10170;SDS011;5127;50.922;6.988;2022-08-21T13:18:56;1.45;;;0.98;;
10170;SDS011;5127;50.922;6.988;2022-08-21T13:21:27;2.42;;;1.40;;
10170;SDS011;5127;50.922;6.988;2022-08-21T13:24:06;1.83;;;1.05;;
10170;SDS011;5127;50.922;6.988;2022-08-21T13:26:41;4.47;;;1.00;;
10170;SDS011;5127;50.922;6.988;2022-08-21T13:29:10;1.48;;;1.13;;
10170;SDS011;5127;50.922;6.988;2022-08-21T13:31:39;1.73;;;0.90;;
10170;SDS011;5127;50.922;6.988;2022-08-21T13:34:09;2.55;;;1.20;;
10170;SDS011;5127;50.922;6.988;2022-08-21T13:36:39;2.05;;;1.00;;
10170;SDS011;5127;50.922;6.988;2022-08-21T13:39:12;3.28;;;1.20;;
10170;SDS011;5127;50.922;6.988;2022-08-21T13:41:45;2.67;;;1.83;;
10170;SDS011;5127;50.922;6.988;2022-08-21T13:44:17;3.85;;;1.50;;
10170;SDS011;5127;50.922;6.988;2022-08-21T13:46:46;1.63;;;1.30;;
10170;SDS011;5127;50.922;6.988;2022-08-21T13:49:17;2.42;;;1.23;;
10170;SDS011;5127;50.922;6.988;2022-08-21T13:51:45;1.60;;;1.10;;
10170;SDS011;5127;50.922;6.988;2022-08-21T13:54:15;2.22;;;1.30;;
10170;SDS011;5127;50.922;6.988;2022-08-21T13:56:50;1.33;;;1.05;;
10170;SDS011;5127;50.922;6.988;2022-08-21T13:59:24;2.22;;;1.45;;
10170;SDS011;5127;50.922;6.988;2022-08-21T14:01:54;3.35;;;2.97;;
10170;SDS011;5127;50.922;6.988;2022-08-21T14:04:25;2.00;;;1.67;;
10170;SDS011;5127;50.922;6.988;2022-08-21T14:07:00;1.85;;;1.10;;
10170;SDS011;5127;50.922;6.988;2022-08-21T14:09:29;3.05;;;1.30;;
10170;SDS011;5127;50.922;6.988;2022-08-21T14:12:01;2.17;;;1.35;;
10170;SDS011;5127;50.922;6.988;2022-08-21T14:14:30;1.25;;;1.10;;
10170;SDS011;5127;50.922;6.988;2022-08-21T14:17:02;2.58;;;1.35;;
10170;SDS011;5127;50.922;6.988;2022-08-21T14:19:36;1.45;;;1.00;;
10170;SDS011;5127;50.922;6.988;2022-08-21T14:25:05;2.00;;;1.10;;
10170;SDS011;5127;50.922;6.988;2022-08-21T14:27:36;2.25;;;1.10;;
10170;SDS011;5127;50.922;6.988;2022-08-21T14:30:12;2.13;;;1.20;;
10170;SDS011;5127;50.922;6.988;2022-08-21T14:32:42;2.15;;;1.10;;
10170;SDS011;5127;50.922;6.988;2022-08-21T14:35:11;3.97;;;1.20;;
10170;SDS011;5127;50.922;6.988;2022-08-21T14:37:41;1.95;;;1.50;;
10170;SDS011;5127;50.922;6.988;2022-08-21T14:40:09;1.67;;;1.13;;
10170;SDS011;5127;50.922;6.988;2022-08-21T14:42:39;1.38;;;1.00;;
10170;SDS011;5127;50.922;6.988;2022-08-21T14:45:13;2.08;;;1.10;;
10170;SDS011;5127;50.922;6.988;2022-08-21T14:47:41;2.00;;;1.10;;
10170;SDS011;5127;50.922;6.988;2022-08-21T14:50:09;2.72;;;1.27;;
10170;SDS011;5127;50.922;6.988;2022-08-21T14:52:37;1.90;;;0.93;;
10170;SDS011;5127;50.922;6.988;2022-08-21T14:55:06;2.40;;;1.10;;
10170;SDS011;5127;50.922;6.988;2022-08-21T14:57:36;2.33;;;1.45;;
10170;SDS011;5127;50.922;6.988;2022-08-21T15:00:06;2.63;;;1.13;;
10170;SDS011;5127;50.922;6.988;2022-08-21T15:02:36;3.35;;;1.55;;
10170;SDS011;5127;50.922;6.988;2022-08-21T15:05:03;1.48;;;1.13;;
10170;SDS011;5127;50.922;6.988;2022-08-21T15:07:31;1.90;;;1.02;;
10170;SDS011;5127;50.922;6.988;2022-08-21T15:09:59;1.80;;;1.23;;
10170;SDS011;5127;50.922;6.988;2022-08-21T15:12:26;3.55;;;1.50;;
10170;SDS011;5127;50.922;6.988;2022-08-21T15:14:54;2.10;;;1.02;;
10170;SDS011;5127;50.922;6.988;2022-08-21T15:17:22;1.73;;;1.50;;
10170;SDS011;5127;50.922;6.988;2022-08-21T15:19:50;2.25;;;1.40;;
10170;SDS011;5127;50.922;6.988;2022-08-21T15:22:17;1.42;;;1.20;;